Mora, Idaho
Current Conditions -  °F | °C
As of 4:53 AM on Monday 26 Jan 2015 (Local Time) from KBOI Reporting Station
Haze Haze  
Wind Chill: 29°   Ceiling: Unl
Heat Index: 29°   Visibility: 4mi
Dew Point: 28°   Wind: 0mph
Humidity: 96%   Direction: NA
Pressure: 30.37"   Gusts: NA
Location:  43.5413°N, 116.27°W
Report Text: KBOI 261153Z 00000KT 4SM BR FEW013 M02/M02 A3037 RMK AO2 SLP301 T10171022 10017 21017 57006
Loading
Personal Weather Stations






























Interactive Weather Map New forecast layout! Learn more

10-Day Weather Forecast

Advertisements
Track Severe Weather on mobile